Time;durP1;ratioP1;P1;durP2;ratioP2;P2;SDS_P1;SDS_P2;PMS_P1;PMS_P2;Temp;Humidity;BMP_temperature;BMP_pressure;BME280_temperature;BME280_humidity;BME280_pressure;Samples;Min_cycle;Max_cycle;Signal;HPM_P1;HPM_P2
2022/05/23 00:00:10;;;;;;;4.23;2.17;;;;;;;;;;6220757;23;20933;-52
2022/05/23 00:02:36;;;;;;;2.60;2.40;;;;;;;;;;6237312;23;20402;-51
2022/05/23 00:05:02;;;;;;;2.20;2.00;;;;;;;;;;6237667;23;20504;-52
2022/05/23 00:07:32;;;;;;;2.90;2.70;;;;;;;;;;6238299;23;20759;-51
2022/05/23 00:09:58;;;;;;;3.60;2.30;;;;;;;;;;6229505;22;20855;-51
2022/05/23 00:12:37;;;;;;;5.53;2.80;;;;;;;;;;6233347;23;21096;-54
2022/05/23 00:15:34;;;;;;;3.50;2.00;;;;;;;;;;6235391;23;20450;-51
2022/05/23 00:18:01;;;;;;;3.83;2.17;;;;;;;;;;6236055;23;20433;-50
2022/05/23 00:20:27;;;;;;;2.40;2.20;;;;;;;;;;6218183;23;20970;-51
2022/05/23 00:22:54;;;;;;;3.30;2.03;;;;;;;;;;6241675;23;20865;-53
2022/05/23 00:25:46;;;;;;;2.77;2.03;;;;;;;;;;6242233;23;20767;-51
2022/05/23 00:28:16;;;;;;;2.63;2.43;;;;;;;;;;6234745;23;20418;-51
2022/05/23 00:30:45;;;;;;;2.93;2.60;;;;;;;;;;6240921;23;20370;-53
2022/05/23 00:35:56;;;;;;;2.97;2.10;;;;;;;;;;6240175;23;20420;-51
2022/05/23 00:38:41;;;;;;;4.20;2.60;;;;;;;;;;6236002;23;20382;-53
2022/05/23 00:44:04;;;;;;;3.13;2.40;;;;;;;;;;6241093;23;20381;-52
2022/05/23 00:46:47;;;;;;;4.13;1.97;;;;;;;;;;6233595;23;20667;-52
2022/05/23 00:49:13;;;;;;;3.00;2.40;;;;;;;;;;6236621;23;20433;-52
2022/05/23 00:51:39;;;;;;;2.90;2.17;;;;;;;;;;6234094;23;20389;-51
2022/05/23 00:54:05;;;;;;;2.93;2.33;;;;;;;;;;6222923;23;20739;-51
2022/05/23 00:59:50;;;;;;;4.90;2.10;;;;;;;;;;6178887;22;20367;-51
2022/05/23 01:02:16;;;;;;;2.47;2.20;;;;;;;;;;6223466;23;20408;-51
2022/05/23 01:04:47;;;;;;;3.30;2.20;;;;;;;;;;6239681;23;20366;-51
2022/05/23 01:07:20;;;;;;;3.27;2.37;;;;;;;;;;6238484;23;20379;-52
2022/05/23 01:09:50;;;;;;;4.17;2.70;;;;;;;;;;6236879;22;20389;-52
2022/05/23 01:12:16;;;;;;;2.87;2.67;;;;;;;;;;6241698;23;20835;-52
2022/05/23 01:14:45;;;;;;;4.43;2.13;;;;;;;;;;6232474;23;20386;-51
2022/05/23 01:17:12;;;;;;;2.60;2.20;;;;;;;;;;6239034;23;20374;-50
2022/05/23 01:19:41;;;;;;;2.80;2.47;;;;;;;;;;6218048;22;20386;-50
2022/05/23 01:22:26;;;;;;;2.90;2.20;;;;;;;;;;6239421;23;20366;-50
2022/05/23 01:25:01;;;;;;;2.70;2.10;;;;;;;;;;6222709;23;20401;-52
2022/05/23 01:27:30;;;;;;;2.87;2.60;;;;;;;;;;6238055;23;20468;-51
2022/05/23 01:29:57;;;;;;;2.50;2.30;;;;;;;;;;6204334;22;20414;-51
2022/05/23 01:32:23;;;;;;;2.30;2.10;;;;;;;;;;6241586;22;20374;-50
2022/05/23 01:34:49;;;;;;;2.50;2.30;;;;;;;;;;6217438;23;20378;-51
2022/05/23 01:37:15;;;;;;;2.57;2.33;;;;;;;;;;6239787;23;20446;-52
2022/05/23 01:39:41;;;;;;;2.40;2.20;;;;;;;;;;6236060;23;20170;-54
2022/05/23 01:42:07;;;;;;;2.53;2.00;;;;;;;;;;6239073;23;20412;-50
2022/05/23 01:44:34;;;;;;;2.70;2.20;;;;;;;;;;6217633;23;20147;-51
2022/05/23 01:47:00;;;;;;;3.43;3.03;;;;;;;;;;6239378;22;20382;-50
2022/05/23 01:49:26;;;;;;;3.63;2.40;;;;;;;;;;6220611;23;20483;-53
2022/05/23 01:51:52;;;;;;;2.70;2.50;;;;;;;;;;6239850;23;20317;-51
2022/05/23 01:54:18;;;;;;;5.40;2.63;;;;;;;;;;6233199;23;20382;-50
2022/05/23 01:56:44;;;;;;;3.83;2.20;;;;;;;;;;6240754;23;20584;-50
2022/05/23 02:01:57;;;;;;;2.80;2.53;;;;;;;;;;6240591;23;20416;-52
2022/05/23 02:04:23;;;;;;;4.80;2.87;;;;;;;;;;6230321;23;20377;-51
2022/05/23 02:06:49;;;;;;;3.53;2.50;;;;;;;;;;6240268;23;20358;-52
2022/05/23 02:09:15;;;;;;;4.17;2.33;;;;;;;;;;6226669;23;20270;-51
2022/05/23 02:11:41;;;;;;;2.97;2.40;;;;;;;;;;6240470;23;20370;-52
2022/05/23 02:14:07;;;;;;;3.10;2.37;;;;;;;;;;6224162;23;21011;-51
2022/05/23 02:16:33;;;;;;;3.63;2.73;;;;;;;;;;6241733;23;20167;-52
2022/05/23 02:19:00;;;;;;;3.37;2.80;;;;;;;;;;6236293;23;20916;-52
2022/05/23 02:21:30;;;;;;;3.13;2.30;;;;;;;;;;6239405;23;20378;-57
2022/05/23 02:23:58;;;;;;;3.10;2.50;;;;;;;;;;6225765;23;20378;-51
2022/05/23 02:26:25;;;;;;;3.10;2.20;;;;;;;;;;6237419;22;20377;-53
2022/05/23 02:29:24;;;;;;;3.40;2.10;;;;;;;;;;6236841;23;20804;-51
2022/05/23 02:31:50;;;;;;;3.60;2.33;;;;;;;;;;6230601;23;20919;-51
2022/05/23 02:34:17;;;;;;;4.10;2.20;;;;;;;;;;6237292;23;20386;-51
2022/05/23 02:36:44;;;;;;;4.20;2.20;;;;;;;;;;6230294;23;20148;-52
2022/05/23 02:39:10;;;;;;;3.20;2.47;;;;;;;;;;6219059;23;20428;-52
2022/05/23 02:41:36;;;;;;;2.43;2.20;;;;;;;;;;6241775;23;20492;-51
2022/05/23 02:44:02;;;;;;;4.17;3.17;;;;;;;;;;6223073;23;20485;-51
2022/05/23 02:46:28;;;;;;;2.97;2.40;;;;;;;;;;6239730;23;21016;-53
2022/05/23 02:48:55;;;;;;;2.20;2.00;;;;;;;;;;6235830;22;20516;-53
2022/05/23 02:51:23;;;;;;;6.27;2.70;;;;;;;;;;6243194;23;20370;-53
2022/05/23 02:53:50;;;;;;;4.20;2.77;;;;;;;;;;6222242;22;20374;-50
2022/05/23 02:56:16;;;;;;;4.73;2.60;;;;;;;;;;6240685;23;21230;-50
2022/05/23 02:58:42;;;;;;;2.83;2.57;;;;;;;;;;6238587;23;20808;-51
2022/05/23 03:01:08;;;;;;;3.83;2.47;;;;;;;;;;6241365;23;20865;-51
2022/05/23 03:03:39;;;;;;;3.27;2.87;;;;;;;;;;6237554;23;20917;-51
2022/05/23 03:06:05;;;;;;;2.80;2.27;;;;;;;;;;6238234;22;20405;-51
2022/05/23 03:08:31;;;;;;;8.47;2.80;;;;;;;;;;6240124;23;20426;-51
2022/05/23 03:10:58;;;;;;;4.40;3.13;;;;;;;;;;6227126;23;20420;-52
2022/05/23 03:13:24;;;;;;;3.17;2.23;;;;;;;;;;6238583;23;20464;-51
2022/05/23 03:15:50;;;;;;;3.23;2.73;;;;;;;;;;6218988;23;20385;-51
2022/05/23 03:18:16;;;;;;;3.20;2.33;;;;;;;;;;6240201;23;20367;-51
2022/05/23 03:20:42;;;;;;;3.50;2.60;;;;;;;;;;6235444;23;20519;-51
2022/05/23 03:29:03;;;;;;;3.37;2.40;;;;;;;;;;6240996;23;20471;-55
2022/05/23 03:31:34;;;;;;;3.30;2.20;;;;;;;;;;6251438;22;20466;-53
2022/05/23 03:34:31;;;;;;;2.63;2.20;;;;;;;;;;6241813;23;20382;-51
2022/05/23 03:37:00;;;;;;;2.43;2.23;;;;;;;;;;6238029;23;20436;-51
2022/05/23 03:39:26;;;;;;;3.57;2.20;;;;;;;;;;6226671;23;20374;-50
2022/05/23 03:41:56;;;;;;;4.07;2.67;;;;;;;;;;6241275;23;20313;-50
2022/05/23 03:44:25;;;;;;;3.80;2.90;;;;;;;;;;6235002;22;20389;-51
2022/05/23 03:46:53;;;;;;;2.77;2.27;;;;;;;;;;6240653;22;20409;-51
2022/05/23 03:49:20;;;;;;;2.80;2.60;;;;;;;;;;6234797;22;20441;-51
2022/05/23 03:51:46;;;;;;;3.10;2.70;;;;;;;;;;6240275;23;20453;-51
2022/05/23 03:54:13;;;;;;;2.70;2.47;;;;;;;;;;6225925;23;20872;-51
2022/05/23 03:56:44;;;;;;;2.83;2.23;;;;;;;;;;6239866;22;20378;-51
2022/05/23 03:59:30;;;;;;;3.40;3.10;;;;;;;;;;6236355;23;20791;-51
2022/05/23 04:01:57;;;;;;;3.10;2.53;;;;;;;;;;6237029;23;20435;-51
2022/05/23 04:04:28;;;;;;;3.13;2.43;;;;;;;;;;6235245;22;20727;-52
2022/05/23 04:06:59;;;;;;;4.60;3.47;;;;;;;;;;6241153;22;20382;-50
2022/05/23 04:09:34;;;;;;;4.63;2.70;;;;;;;;;;6237732;22;20430;-52
2022/05/23 04:12:00;;;;;;;4.03;2.70;;;;;;;;;;6233870;23;20420;-51
2022/05/23 04:14:26;;;;;;;6.20;2.50;;;;;;;;;;6238737;23;20383;-51
2022/05/23 04:17:02;;;;;;;11.63;3.03;;;;;;;;;;6223250;23;21022;-52
2022/05/23 04:19:37;;;;;;;5.40;2.20;;;;;;;;;;6240456;23;20423;-52
2022/05/23 04:22:07;;;;;;;4.27;2.20;;;;;;;;;;6242549;22;20454;-51
2022/05/23 04:24:33;;;;;;;2.83;2.33;;;;;;;;;;6240355;23;21153;-51
2022/05/23 04:27:17;;;;;;;2.33;2.13;;;;;;;;;;6229201;23;20374;-51
2022/05/23 04:30:11;;;;;;;2.30;1.87;;;;;;;;;;6238719;22;20679;-51
2022/05/23 04:35:38;;;;;;;2.97;2.00;;;;;;;;;;6229217;23;20381;-50
2022/05/23 04:38:05;;;;;;;3.70;2.23;;;;;;;;;;6244076;23;20865;-52
2022/05/23 04:40:31;;;;;;;2.20;2.00;;;;;;;;;;6217151;23;20736;-50
2022/05/23 04:42:57;;;;;;;5.17;1.90;;;;;;;;;;6236657;23;20381;-53
2022/05/23 04:45:23;;;;;;;3.30;2.23;;;;;;;;;;6236928;23;20382;-50
2022/05/23 04:50:40;;;;;;;3.03;2.40;;;;;;;;;;6238962;23;20381;-51
2022/05/23 04:53:10;;;;;;;3.17;2.70;;;;;;;;;;6229214;23;20442;-53
2022/05/23 04:56:03;;;;;;;4.37;2.70;;;;;;;;;;6241165;22;20374;-53
2022/05/23 04:58:33;;;;;;;3.10;2.20;;;;;;;;;;6235064;22;20389;-51
2022/05/23 05:01:29;;;;;;;4.00;2.80;;;;;;;;;;6236099;23;20374;-52
2022/05/23 05:03:59;;;;;;;3.70;2.40;;;;;;;;;;6237910;23;20374;-50
2022/05/23 05:06:32;;;;;;;3.60;3.20;;;;;;;;;;6232367;23;20882;-50
2022/05/23 05:09:08;;;;;;;4.40;3.37;;;;;;;;;;6235459;23;20575;-50
2022/05/23 05:11:42;;;;;;;7.07;3.50;;;;;;;;;;6224159;22;20448;-50
2022/05/23 05:14:11;;;;;;;5.63;3.50;;;;;;;;;;6231851;23;20386;-52
2022/05/23 05:16:44;;;;;;;4.80;3.70;;;;;;;;;;6238150;23;20363;-51
2022/05/23 05:19:16;;;;;;;5.70;3.27;;;;;;;;;;6183615;23;20472;-51
2022/05/23 05:21:42;;;;;;;4.43;3.10;;;;;;;;;;6231143;23;20385;-52
2022/05/23 05:24:40;;;;;;;6.40;3.40;;;;;;;;;;6233069;23;20432;-51
2022/05/23 05:27:10;;;;;;;3.47;3.17;;;;;;;;;;6237359;22;20389;-51
2022/05/23 05:29:36;;;;;;;3.80;2.53;;;;;;;;;;6227706;23;20426;-50
2022/05/23 05:32:02;;;;;;;4.90;2.80;;;;;;;;;;6230131;23;20385;-52
2022/05/23 05:34:49;;;;;;;6.13;3.33;;;;;;;;;;6226070;23;20436;-53
2022/05/23 05:37:29;;;;;;;3.70;3.40;;;;;;;;;;6235958;23;20800;-52
2022/05/23 05:39:55;;;;;;;4.60;3.00;;;;;;;;;;6218871;23;20374;-52
2022/05/23 05:42:30;;;;;;;3.50;2.73;;;;;;;;;;6235920;23;20460;-53
2022/05/23 05:45:08;;;;;;;4.57;3.53;;;;;;;;;;6214945;23;20374;-53
2022/05/23 05:50:45;;;;;;;3.97;3.37;;;;;;;;;;6219158;23;20385;-52
2022/05/23 05:53:28;;;;;;;4.07;3.03;;;;;;;;;;6235808;23;20378;-53
2022/05/23 05:55:54;;;;;;;3.90;3.50;;;;;;;;;;6237690;23;20369;-52
2022/05/23 05:58:29;;;;;;;5.60;3.60;;;;;;;;;;6233788;23;20963;-54
2022/05/23 06:00:55;;;;;;;4.20;3.40;;;;;;;;;;6241677;22;20401;-51
2022/05/23 06:03:29;;;;;;;3.50;3.13;;;;;;;;;;6231496;23;20366;-54
2022/05/23 06:11:44;;;;;;;3.70;3.40;;;;;;;;;;6240900;23;20443;-55
2022/05/23 06:14:35;;;;;;;8.63;3.97;;;;;;;;;;6249657;23;20371;-54
2022/05/23 06:17:07;;;;;;;8.20;4.40;;;;;;;;;;6231196;23;20385;-54
2022/05/23 06:19:40;;;;;;;6.83;3.43;;;;;;;;;;6237918;23;20717;-52
2022/05/23 06:22:06;;;;;;;4.43;3.23;;;;;;;;;;6238804;22;20474;-52
2022/05/23 06:24:32;;;;;;;3.97;3.30;;;;;;;;;;6219358;23;20406;-53
2022/05/23 06:26:59;;;;;;;5.77;4.20;;;;;;;;;;6200350;23;20413;-52
2022/05/23 06:29:25;;;;;;;5.40;3.77;;;;;;;;;;6239289;22;20445;-53
2022/05/23 06:31:51;;;;;;;3.93;3.20;;;;;;;;;;6236717;23;20366;-52
2022/05/23 06:34:18;;;;;;;4.53;3.30;;;;;;;;;;6236573;23;20381;-54
2022/05/23 06:36:43;;;;;;;6.10;3.53;;;;;;;;;;6222941;23;20611;-52
2022/05/23 06:39:13;;;;;;;12.10;4.17;;;;;;;;;;6235305;23;20371;-54
2022/05/23 06:41:47;;;;;;;5.13;3.73;;;;;;;;;;6230114;23;20613;-54
2022/05/23 06:44:13;;;;;;;6.60;4.13;;;;;;;;;;6237800;23;20380;-53
2022/05/23 06:47:15;;;;;;;4.10;3.50;;;;;;;;;;6245467;23;20413;-53
2022/05/23 06:49:41;;;;;;;4.33;3.43;;;;;;;;;;6238355;23;20457;-53
2022/05/23 06:52:07;;;;;;;6.50;3.93;;;;;;;;;;6233395;23;21167;-52
2022/05/23 06:54:34;;;;;;;4.47;3.30;;;;;;;;;;6239496;23;20386;-54
2022/05/23 06:57:06;;;;;;;5.50;3.33;;;;;;;;;;6229399;23;20436;-54
2022/05/23 06:59:32;;;;;;;4.73;3.33;;;;;;;;;;6238669;22;20416;-53
2022/05/23 07:01:58;;;;;;;9.17;3.67;;;;;;;;;;6220576;23;20378;-53
2022/05/23 07:04:24;;;;;;;6.40;3.50;;;;;;;;;;6234226;22;20362;-53
2022/05/23 07:12:36;;;;;;;9.50;3.40;;;;;;;;;;6215237;22;21020;-55
2022/05/23 07:15:03;;;;;;;4.70;3.13;;;;;;;;;;6236343;23;20446;-53
2022/05/23 07:17:37;;;;;;;4.87;3.40;;;;;;;;;;6224342;22;20378;-52
2022/05/23 07:20:05;;;;;;;4.93;3.10;;;;;;;;;;6237423;23;20385;-54
2022/05/23 07:22:31;;;;;;;3.70;3.13;;;;;;;;;;6217327;22;20370;-51
2022/05/23 07:24:57;;;;;;;6.00;3.27;;;;;;;;;;6240218;23;20382;-54
2022/05/23 07:27:25;;;;;;;3.50;3.10;;;;;;;;;;6216353;22;20374;-53
2022/05/23 07:29:51;;;;;;;5.37;3.53;;;;;;;;;;6232690;22;20505;-53
2022/05/23 07:32:33;;;;;;;3.50;3.20;;;;;;;;;;6234491;22;20450;-52
2022/05/23 07:34:59;;;;;;;3.90;3.43;;;;;;;;;;6206014;23;20382;-53
2022/05/23 07:37:27;;;;;;;4.33;3.20;;;;;;;;;;6237838;23;20665;-53
2022/05/23 07:39:58;;;;;;;5.20;3.57;;;;;;;;;;6230393;23;20155;-53
2022/05/23 07:42:24;;;;;;;4.00;3.20;;;;;;;;;;6236846;23;20962;-54
2022/05/23 07:47:53;;;;;;;4.43;3.67;;;;;;;;;;6220080;23;20425;-53
2022/05/23 08:01:52;;;;;;;4.40;3.43;;;;;;;;;;6228500;23;20900;-52
2022/05/23 08:04:19;;;;;;;5.40;3.60;;;;;;;;;;6239481;23;20453;-52
2022/05/23 08:06:45;;;;;;;3.50;3.20;;;;;;;;;;6220218;22;20461;-53
2022/05/23 08:09:11;;;;;;;4.20;3.80;;;;;;;;;;6240263;23;20468;-53
2022/05/23 08:11:38;;;;;;;5.20;4.50;;;;;;;;;;6209645;23;20397;-53
2022/05/23 08:14:04;;;;;;;4.40;3.37;;;;;;;;;;6238213;23;20489;-53
2022/05/23 08:16:31;;;;;;;5.97;3.93;;;;;;;;;;6228448;23;20373;-53
2022/05/23 08:18:58;;;;;;;4.10;3.67;;;;;;;;;;6240797;23;20759;-53
2022/05/23 08:21:24;;;;;;;5.30;3.40;;;;;;;;;;6236782;22;20383;-52
2022/05/23 08:23:50;;;;;;;4.87;3.67;;;;;;;;;;6240849;23;20719;-53
2022/05/23 08:26:25;;;;;;;5.57;3.93;;;;;;;;;;6234793;23;20394;-54
2022/05/23 08:28:51;;;;;;;3.90;3.50;;;;;;;;;;6241670;22;20421;-53
2022/05/23 08:31:17;;;;;;;3.40;3.10;;;;;;;;;;6238611;23;20367;-52
2022/05/23 08:33:43;;;;;;;9.53;3.13;;;;;;;;;;6242706;23;20687;-52
2022/05/23 08:36:12;;;;;;;5.70;3.80;;;;;;;;;;6225576;23;20577;-55
2022/05/23 08:38:40;;;;;;;3.43;3.13;;;;;;;;;;6243397;23;20710;-53
2022/05/23 08:41:16;;;;;;;7.00;4.50;;;;;;;;;;6215056;23;21322;-52
2022/05/23 08:44:05;;;;;;;5.30;3.40;;;;;;;;;;6242285;23;20382;-52
2022/05/23 08:46:42;;;;;;;4.27;3.67;;;;;;;;;;6227660;23;20653;-52
2022/05/23 08:49:15;;;;;;;5.83;3.80;;;;;;;;;;6242273;23;20429;-53
2022/05/23 08:51:42;;;;;;;5.50;3.57;;;;;;;;;;6237277;23;20379;-53
2022/05/23 08:54:30;;;;;;;4.47;3.43;;;;;;;;;;6241601;23;20381;-52
2022/05/23 08:56:57;;;;;;;5.40;3.87;;;;;;;;;;6231175;22;20940;-53
2022/05/23 08:59:27;;;;;;;5.50;4.90;;;;;;;;;;6200976;23;21330;-53
2022/05/23 09:02:02;;;;;;;4.17;3.30;;;;;;;;;;6241025;23;20374;-52
2022/05/23 09:04:38;;;;;;;6.20;4.30;;;;;;;;;;6233862;23;20405;-52
2022/05/23 09:07:06;;;;;;;5.90;3.63;;;;;;;;;;6265153;22;20378;-52
2022/05/23 09:09:36;;;;;;;7.27;3.33;;;;;;;;;;6225124;23;20438;-54
2022/05/23 09:12:06;;;;;;;4.80;4.17;;;;;;;;;;6241008;22;20377;-52
2022/05/23 09:14:33;;;;;;;4.13;3.13;;;;;;;;;;6227060;23;20366;-52
2022/05/23 09:17:07;;;;;;;5.83;3.83;;;;;;;;;;6241506;23;20366;-53
2022/05/23 09:19:33;;;;;;;4.03;3.07;;;;;;;;;;6227173;22;20366;-51
2022/05/23 09:22:14;;;;;;;5.97;3.07;;;;;;;;;;6242502;23;20366;-54
2022/05/23 09:24:47;;;;;;;4.27;3.10;;;;;;;;;;6227254;23;20660;-54
2022/05/23 09:27:19;;;;;;;3.43;3.13;;;;;;;;;;6240409;23;21231;-52
2022/05/23 09:29:46;;;;;;;5.40;3.53;;;;;;;;;;6228583;23;20972;-52
2022/05/23 09:32:13;;;;;;;5.27;3.30;;;;;;;;;;6242350;23;20594;-53
2022/05/23 09:34:47;;;;;;;3.43;3.13;;;;;;;;;;6227425;23;20397;-53
2022/05/23 09:37:24;;;;;;;3.33;2.57;;;;;;;;;;6241107;23;20775;-52
2022/05/23 09:39:57;;;;;;;5.20;3.73;;;;;;;;;;6225520;23;20697;-52
2022/05/23 09:48:36;;;;;;;4.20;3.60;;;;;;;;;;6180508;23;20717;-52
2022/05/23 09:51:07;;;;;;;3.97;3.57;;;;;;;;;;6239574;23;20413;-53
2022/05/23 09:54:00;;;;;;;3.53;2.87;;;;;;;;;;6234242;23;20439;-53
2022/05/23 09:56:34;;;;;;;5.80;3.80;;;;;;;;;;6240082;22;20405;-53
2022/05/23 09:59:17;;;;;;;4.23;3.00;;;;;;;;;;6238891;23;20439;-53
2022/05/23 10:01:45;;;;;;;4.40;3.67;;;;;;;;;;6240006;23;20381;-53
2022/05/23 10:04:49;;;;;;;5.53;3.40;;;;;;;;;;6243984;23;20366;-53
2022/05/23 10:07:19;;;;;;;5.87;3.40;;;;;;;;;;6241140;22;20374;-54
2022/05/23 10:09:45;;;;;;;5.07;4.03;;;;;;;;;;6233914;23;20480;-53
2022/05/23 10:12:25;;;;;;;5.37;4.20;;;;;;;;;;6228283;23;20379;-54
2022/05/23 10:15:17;;;;;;;4.87;3.90;;;;;;;;;;6259460;22;20382;-53
2022/05/23 10:17:46;;;;;;;5.70;3.97;;;;;;;;;;6237840;22;20374;-53
2022/05/23 10:20:29;;;;;;;5.63;4.27;;;;;;;;;;6235867;23;20367;-53
2022/05/23 10:23:07;;;;;;;7.03;4.03;;;;;;;;;;6240182;23;20362;-54
2022/05/23 10:25:37;;;;;;;5.40;3.57;;;;;;;;;;6233542;22;20389;-55
2022/05/23 10:28:31;;;;;;;4.20;3.80;;;;;;;;;;6242002;23;20992;-55
2022/05/23 10:31:07;;;;;;;7.40;4.27;;;;;;;;;;6232357;23;20386;-54
2022/05/23 10:33:49;;;;;;;5.50;3.43;;;;;;;;;;6241074;23;20386;-53
2022/05/23 10:36:21;;;;;;;6.00;4.00;;;;;;;;;;6223897;23;20397;-53
2022/05/23 10:42:11;;;;;;;4.30;3.53;;;;;;;;;;6235876;23;20437;-54
2022/05/23 10:45:15;;;;;;;4.33;3.57;;;;;;;;;;6236415;22;20440;-54
2022/05/23 10:48:26;;;;;;;4.40;3.77;;;;;;;;;;6226541;22;20438;-53
2022/05/23 10:50:57;;;;;;;5.80;3.70;;;;;;;;;;6236492;23;20389;-52
2022/05/23 10:53:42;;;;;;;4.40;3.63;;;;;;;;;;6240042;23;20378;-54
2022/05/23 10:56:34;;;;;;;5.57;3.53;;;;;;;;;;6246576;22;20424;-53
2022/05/23 10:59:20;;;;;;;5.60;3.80;;;;;;;;;;6229838;23;20401;-54
2022/05/23 11:01:54;;;;;;;6.83;3.87;;;;;;;;;;6224104;23;20389;-53
2022/05/23 11:04:48;;;;;;;3.77;3.40;;;;;;;;;;6227882;23;20418;-53
2022/05/23 11:07:34;;;;;;;4.17;3.60;;;;;;;;;;6226355;22;20469;-52
2022/05/23 11:10:19;;;;;;;5.97;3.70;;;;;;;;;;6213580;23;20876;-53
2022/05/23 11:12:53;;;;;;;4.73;3.90;;;;;;;;;;6238861;23;20381;-50
2022/05/23 11:18:25;;;;;;;5.37;4.40;;;;;;;;;;6246112;23;20369;-51
2022/05/23 11:21:11;;;;;;;7.63;4.50;;;;;;;;;;6240341;23;20424;-53
2022/05/23 11:23:58;;;;;;;11.10;4.87;;;;;;;;;;6236779;23;20394;-53
2022/05/23 11:26:31;;;;;;;5.83;4.93;;;;;;;;;;6240736;22;20531;-53
2022/05/23 11:33:41;;;;;;;5.93;4.80;;;;;;;;;;6237767;23;20855;-55
2022/05/23 11:34:49;;;;;;;6.57;5.30;;;;;;;;;;6227402;23;20640;-54
2022/05/23 11:39:52;;;;;;;6.83;6.00;;;;;;;;;;6216079;23;20385;-53
2022/05/23 11:42:37;;;;;;;9.50;6.97;;;;;;;;;;6212471;23;20389;-56
2022/05/23 11:47:54;;;;;;;8.47;5.00;;;;;;;;;;6237871;23;20441;-56
2022/05/23 11:50:34;;;;;;;5.80;4.67;;;;;;;;;;6217124;23;20396;-58
2022/05/23 11:53:29;;;;;;;10.93;3.83;;;;;;;;;;6229250;23;20529;-56
2022/05/23 11:55:55;;;;;;;6.63;3.60;;;;;;;;;;6231638;22;20405;-55
2022/05/23 11:58:24;;;;;;;6.10;3.20;;;;;;;;;;6221451;23;20769;-55
2022/05/23 12:01:02;;;;;;;5.63;3.80;;;;;;;;;;6240395;23;20449;-55
2022/05/23 12:03:36;;;;;;;6.07;3.53;;;;;;;;;;6232709;23;20876;-56
2022/05/23 12:06:18;;;;;;;8.23;3.50;;;;;;;;;;6239976;23;20572;-56
2022/05/23 12:09:07;;;;;;;6.10;3.70;;;;;;;;;;6211449;23;20444;-57
2022/05/23 12:11:40;;;;;;;17.53;5.40;;;;;;;;;;6224419;23;20432;-56
2022/05/23 12:14:19;;;;;;;10.03;3.67;;;;;;;;;;6223831;23;20409;-56
2022/05/23 12:16:58;;;;;;;10.70;3.70;;;;;;;;;;6232350;23;20382;-56
2022/05/23 12:19:39;;;;;;;5.60;3.20;;;;;;;;;;6216393;22;20383;-55
2022/05/23 12:22:25;;;;;;;7.90;3.73;;;;;;;;;;6230163;22;20416;-56
2022/05/23 12:25:09;;;;;;;8.33;3.40;;;;;;;;;;6205996;23;20937;-56
2022/05/23 12:27:40;;;;;;;6.63;3.33;;;;;;;;;;6233821;23;20766;-56
2022/05/23 12:30:17;;;;;;;4.90;3.60;;;;;;;;;;6205404;23;20888;-56
2022/05/23 12:32:54;;;;;;;7.03;4.00;;;;;;;;;;6231231;23;20431;-57
2022/05/23 12:35:26;;;;;;;9.03;4.10;;;;;;;;;;6237021;22;20432;-58
2022/05/23 12:38:01;;;;;;;4.60;3.77;;;;;;;;;;6229790;23;20382;-56
2022/05/23 12:40:39;;;;;;;9.73;3.50;;;;;;;;;;6215265;23;20852;-56
2022/05/23 12:43:24;;;;;;;4.27;3.10;;;;;;;;;;6209482;22;20808;-57
2022/05/23 12:46:09;;;;;;;5.60;2.80;;;;;;;;;;6231710;23;20389;-57
2022/05/23 12:48:48;;;;;;;7.00;3.17;;;;;;;;;;6222363;23;20493;-57
2022/05/23 12:51:36;;;;;;;4.23;2.97;;;;;;;;;;6240319;23;20420;-57
2022/05/23 12:54:23;;;;;;;5.93;4.23;;;;;;;;;;6224343;23;20393;-55
2022/05/23 12:57:09;;;;;;;6.07;3.03;;;;;;;;;;6227025;23;20383;-56
2022/05/23 12:59:38;;;;;;;6.40;3.10;;;;;;;;;;6234700;23;20405;-56
2022/05/23 13:02:06;;;;;;;12.30;3.73;;;;;;;;;;6212432;23;21128;-55
2022/05/23 13:04:40;;;;;;;7.77;3.60;;;;;;;;;;6231921;23;20382;-56
2022/05/23 13:07:38;;;;;;;9.53;4.57;;;;;;;;;;6223181;23;20415;-55
2022/05/23 13:10:06;;;;;;;5.77;3.43;;;;;;;;;;6209166;23;20489;-55
2022/05/23 13:12:43;;;;;;;6.03;3.63;;;;;;;;;;6216188;23;20386;-55
2022/05/23 13:15:22;;;;;;;6.37;3.03;;;;;;;;;;6233494;22;20887;-55
2022/05/23 13:17:48;;;;;;;4.50;2.70;;;;;;;;;;6211055;22;21127;-55
2022/05/23 13:23:01;;;;;;;7.37;2.60;;;;;;;;;;6237452;23;20369;-55
2022/05/23 13:25:31;;;;;;;4.10;3.03;;;;;;;;;;6232149;23;20915;-54
2022/05/23 13:27:58;;;;;;;8.87;2.97;;;;;;;;;;6238185;22;20437;-55
2022/05/23 13:30:27;;;;;;;6.53;2.50;;;;;;;;;;6240507;23;20890;-56
2022/05/23 13:33:09;;;;;;;8.60;2.90;;;;;;;;;;6238241;23;20385;-55
2022/05/23 13:35:36;;;;;;;4.80;2.40;;;;;;;;;;6215159;22;20366;-55
2022/05/23 13:38:16;;;;;;;5.30;3.00;;;;;;;;;;6237504;22;20405;-54
2022/05/23 13:40:50;;;;;;;5.60;2.73;;;;;;;;;;6232026;22;20503;-54
2022/05/23 13:43:18;;;;;;;2.60;2.00;;;;;;;;;;6233804;23;20488;-56
2022/05/23 13:45:44;;;;;;;4.80;2.57;;;;;;;;;;6209177;23;20405;-56
2022/05/23 13:48:16;;;;;;;3.87;2.20;;;;;;;;;;6209839;23;20434;-55
2022/05/23 13:50:46;;;;;;;2.70;1.90;;;;;;;;;;6206359;23;21011;-55
2022/05/23 13:53:36;;;;;;;3.57;3.10;;;;;;;;;;6232853;23;20459;-55
2022/05/23 13:56:03;;;;;;;9.20;3.80;;;;;;;;;;6198141;22;20738;-55
2022/05/23 13:58:31;;;;;;;6.93;2.20;;;;;;;;;;6233506;23;20473;-53
2022/05/23 14:00:59;;;;;;;4.13;2.17;;;;;;;;;;6219644;23;20392;-54
2022/05/23 14:03:25;;;;;;;5.40;2.47;;;;;;;;;;6238585;23;20370;-55
2022/05/23 14:05:52;;;;;;;3.00;2.17;;;;;;;;;;6218727;23;20371;-54
2022/05/23 14:08:40;;;;;;;4.13;2.80;;;;;;;;;;6239431;22;20422;-56
2022/05/23 14:11:18;;;;;;;5.47;2.50;;;;;;;;;;6232432;23;21190;-54
2022/05/23 14:13:44;;;;;;;3.30;2.50;;;;;;;;;;6230384;22;20528;-54
2022/05/23 14:16:13;;;;;;;4.43;2.63;;;;;;;;;;6209140;23;20792;-55
2022/05/23 14:18:39;;;;;;;3.80;2.27;;;;;;;;;;6231645;23;20452;-55
2022/05/23 14:21:28;;;;;;;7.00;2.60;;;;;;;;;;6222324;22;20950;-56
2022/05/23 14:23:55;;;;;;;6.77;2.60;;;;;;;;;;6235677;23;20707;-55
2022/05/23 14:26:21;;;;;;;9.00;3.00;;;;;;;;;;6222666;22;20598;-57
2022/05/23 14:28:49;;;;;;;6.20;2.57;;;;;;;;;;6235463;22;20437;-56
2022/05/23 14:31:49;;;;;;;6.87;3.00;;;;;;;;;;6221949;22;20378;-56
2022/05/23 14:34:18;;;;;;;5.80;3.00;;;;;;;;;;6184068;22;20825;-56
2022/05/23 14:36:51;;;;;;;5.77;2.73;;;;;;;;;;6228621;23;20371;-56
2022/05/23 14:39:18;;;;;;;5.50;2.80;;;;;;;;;;6237040;23;20390;-56
2022/05/23 14:41:49;;;;;;;10.93;2.63;;;;;;;;;;6229263;23;20370;-56
2022/05/23 14:44:15;;;;;;;4.07;2.63;;;;;;;;;;6233877;22;20396;-54
2022/05/23 14:46:59;;;;;;;4.70;2.77;;;;;;;;;;6205519;23;21534;-54
2022/05/23 14:49:38;;;;;;;4.77;2.73;;;;;;;;;;6238136;23;20483;-55
2022/05/23 14:52:19;;;;;;;7.43;3.23;;;;;;;;;;6225641;22;20393;-56
2022/05/23 15:00:37;;;;;;;5.93;2.80;;;;;;;;;;6233908;23;20400;-56
2022/05/23 15:03:27;;;;;;;5.07;2.93;;;;;;;;;;6234665;22;20930;-55
2022/05/23 15:06:15;;;;;;;3.83;2.70;;;;;;;;;;6249583;22;20444;-55
2022/05/23 15:08:47;;;;;;;6.83;3.10;;;;;;;;;;6231243;22;20461;-56
2022/05/23 15:11:17;;;;;;;7.20;3.40;;;;;;;;;;6218278;23;20362;-57
2022/05/23 15:13:43;;;;;;;5.50;3.37;;;;;;;;;;6236873;23;20479;-54
2022/05/23 15:16:14;;;;;;;5.33;3.00;;;;;;;;;;6230462;23;20382;-54
2022/05/23 15:18:41;;;;;;;5.20;2.60;;;;;;;;;;6232103;23;20367;-53
2022/05/23 15:21:10;;;;;;;5.03;2.90;;;;;;;;;;6224490;22;20908;-56
2022/05/23 15:23:38;;;;;;;3.73;2.60;;;;;;;;;;6235580;23;20397;-55
2022/05/23 15:26:04;;;;;;;12.80;3.90;;;;;;;;;;6225765;22;20381;-56
2022/05/23 15:28:31;;;;;;;7.67;3.33;;;;;;;;;;6239679;23;20420;-55
2022/05/23 15:30:57;;;;;;;7.77;3.63;;;;;;;;;;6229003;23;20461;-54
2022/05/23 15:33:22;;;;;;;7.53;3.10;;;;;;;;;;6238010;23;20411;-55
2022/05/23 15:35:48;;;;;;;5.20;3.07;;;;;;;;;;6221703;23;20377;-55
2022/05/23 15:38:20;;;;;;;6.63;3.00;;;;;;;;;;6228651;23;20881;-54
2022/05/23 15:40:46;;;;;;;5.97;2.90;;;;;;;;;;6240480;22;20382;-54
2022/05/23 15:43:35;;;;;;;5.20;2.63;;;;;;;;;;6236417;22;20444;-53
2022/05/23 15:46:32;;;;;;;5.70;2.87;;;;;;;;;;6244007;22;20370;-55
2022/05/23 15:49:06;;;;;;;4.67;2.70;;;;;;;;;;6230424;22;20494;-54
2022/05/23 15:51:41;;;;;;;6.90;3.10;;;;;;;;;;6240715;22;20382;-55
2022/05/23 15:54:33;;;;;;;7.27;3.60;;;;;;;;;;6216303;23;20940;-55
2022/05/23 15:57:11;;;;;;;5.37;3.03;;;;;;;;;;6241523;22;20690;-56
2022/05/23 16:00:13;;;;;;;8.20;3.73;;;;;;;;;;6239620;22;20469;-56
2022/05/23 16:02:41;;;;;;;10.30;4.20;;;;;;;;;;6240778;22;20389;-56
2022/05/23 16:05:38;;;;;;;6.87;3.80;;;;;;;;;;6241056;22;20385;-60
2022/05/23 16:08:05;;;;;;;9.40;4.00;;;;;;;;;;6237061;23;20485;-56
2022/05/23 16:10:31;;;;;;;7.90;3.33;;;;;;;;;;6214382;22;20404;-55
2022/05/23 16:13:01;;;;;;;6.70;3.30;;;;;;;;;;6235978;23;20359;-55
2022/05/23 16:15:27;;;;;;;8.00;3.17;;;;;;;;;;6218217;23;20398;-55
2022/05/23 16:18:13;;;;;;;6.13;4.30;;;;;;;;;;6237258;22;20382;-55
2022/05/23 16:20:40;;;;;;;7.00;3.90;;;;;;;;;;6231617;22;20388;-55
2022/05/23 16:23:06;;;;;;;7.57;3.10;;;;;;;;;;6232191;23;20378;-55
2022/05/23 16:25:34;;;;;;;5.47;3.33;;;;;;;;;;6217699;22;20783;-54
2022/05/23 16:28:02;;;;;;;6.53;3.27;;;;;;;;;;6236434;22;20761;-54
2022/05/23 16:30:30;;;;;;;7.90;2.97;;;;;;;;;;6216189;23;20533;-55
2022/05/23 16:38:29;;;;;;;9.00;4.13;;;;;;;;;;6236343;23;20385;-55
2022/05/23 16:40:55;;;;;;;6.23;3.37;;;;;;;;;;6232790;23;21046;-56
2022/05/23 16:43:22;;;;;;;4.90;3.60;;;;;;;;;;6237465;23;20461;-54